Time;durP1;ratioP1;P1;durP2;ratioP2;P2;SDS_P1;SDS_P2;PMS_P1;PMS_P2;Temp;Humidity;BMP_temperature;BMP_pressure;BME280_temperature;BME280_humidity;BME280_pressure;Samples;Min_cycle;Max_cycle;Signal;HPM_P1;HPM_P2
2021/06/01 00:01:38;;;;;;;32.92;26.25;;;;;;;;;;4180873;34;20100;-95
2021/06/01 00:04:10;;;;;;;35.20;27.87;;;;;;;;;;4163505;34;20373;-95
2021/06/01 00:06:39;;;;;;;32.75;26.15;;;;;;;;;;4167674;34;20065;-96
2021/06/01 00:09:13;;;;;;;35.05;29.67;;;;;;;;;;4166002;34;20053;-96
2021/06/01 00:11:46;;;;;;;;;;;;;;;;;;4181602;34;20099;-96
2021/06/01 00:14:18;;;;;;;42.83;37.17;;;;;;;;;;4162763;34;19958;-96
2021/06/01 00:16:50;;;;;;;43.15;34.85;;;;;;;;;;4163884;34;20056;-96
2021/06/01 00:19:21;;;;;;;31.73;28.42;;;;;;;;;;4173046;34;20091;-96
2021/06/01 00:21:52;;;;;;;24.23;21.98;;;;;;;;;;4163314;34;20064;-96
2021/06/01 00:24:23;;;;;;;25.27;22.70;;;;;;;;;;4174950;34;20076;-95
2021/06/01 00:26:52;;;;;;;24.02;21.55;;;;;;;;;;4163197;34;20047;-94
2021/06/01 00:29:21;;;;;;;27.17;23.83;;;;;;;;;;4168700;34;20061;-96
2021/06/01 00:31:50;;;;;;;23.30;20.83;;;;;;;;;;4165421;34;20366;-94
2021/06/01 00:34:23;;;;;;;23.65;21.52;;;;;;;;;;4184892;34;20104;-96
2021/06/01 00:36:53;;;;;;;35.40;28.85;;;;;;;;;;4165833;34;20184;-96
2021/06/01 00:39:29;;;;;;;24.95;21.87;;;;;;;;;;4175514;34;20076;-95
2021/06/01 00:42:00;;;;;;;22.67;20.42;;;;;;;;;;4172999;34;20103;-94
2021/06/01 00:44:29;;;;;;;22.30;20.10;;;;;;;;;;4172132;34;20060;-96
2021/06/01 00:47:04;;;;;;;27.83;21.33;;;;;;;;;;4173183;34;20063;-95
2021/06/01 00:49:35;;;;;;;27.87;24.30;;;;;;;;;;4163258;34;20068;-96
2021/06/01 00:52:12;;;;;;;31.23;25.30;;;;;;;;;;4164063;34;20128;-94
2021/06/01 00:54:49;;;;;;;26.80;21.95;;;;;;;;;;4164813;34;20094;-94
2021/06/01 00:57:24;;;;;;;28.52;22.10;;;;;;;;;;4164437;34;20067;-95
2021/06/01 00:59:59;;;;;;;37.28;22.00;;;;;;;;;;4184884;34;20078;-95
2021/06/01 01:02:32;;;;;;;36.22;22.08;;;;;;;;;;4169842;34;20393;-95
2021/06/01 01:05:04;;;;;;;36.58;20.77;;;;;;;;;;4171444;34;20115;-94
2021/06/01 01:07:45;;;;;;;35.97;20.80;;;;;;;;;;4173050;34;20070;-96
2021/06/01 01:10:18;;;;;;;34.80;21.48;;;;;;;;;;4180581;34;20123;-96
2021/06/01 01:12:57;;;;;;;34.23;18.50;;;;;;;;;;4163114;34;20099;-95
2021/06/01 01:15:37;;;;;;;34.17;19.98;;;;;;;;;;4180547;34;20414;-95
2021/06/01 01:18:12;;;;;;;37.22;21.30;;;;;;;;;;4170724;34;20087;-95
2021/06/01 01:21:13;;;;;;;42.33;22.35;;;;;;;;;;4172712;34;20089;-95
2021/06/01 01:23:53;;;;;;;42.73;22.37;;;;;;;;;;4172150;34;20052;-96
2021/06/01 01:26:43;;;;;;;40.83;22.62;;;;;;;;;;4186168;34;20107;-95
2021/06/01 01:29:17;;;;;;;41.03;25.40;;;;;;;;;;4159159;34;20462;-94
2021/06/01 01:32:05;;;;;;;41.10;24.02;;;;;;;;;;4167814;34;20074;-96
2021/06/01 01:34:40;;;;;;;42.10;24.60;;;;;;;;;;4165192;34;20103;-94
2021/06/01 01:37:19;;;;;;;38.75;23.73;;;;;;;;;;4187124;34;20079;-95
2021/06/01 01:39:52;;;;;;;38.63;22.87;;;;;;;;;;4165314;34;20078;-94
2021/06/01 01:42:23;;;;;;;43.28;32.92;;;;;;;;;;4166584;34;20060;-95
2021/06/01 01:44:56;;;;;;;20.50;18.95;;;;;;;;;;4177116;34;20079;-95
2021/06/01 01:50:24;;;;;;;22.00;19.17;;;;;;;;;;4169283;34;20684;-95
2021/06/01 01:52:59;;;;;;;;;;;;;;;;;;4170881;34;21682;-95
2021/06/01 01:55:47;;;;;;;34.97;21.35;;;;;;;;;;4187946;34;19973;-96
2021/06/01 01:58:23;;;;;;;36.53;21.73;;;;;;;;;;4180366;34;20470;-96
2021/06/01 02:00:53;;;;;;;36.95;20.50;;;;;;;;;;4163524;34;20071;-95
2021/06/01 02:03:43;;;;;;;35.63;19.15;;;;;;;;;;4177851;34;20086;-95
2021/06/01 02:06:19;;;;;;;34.65;23.52;;;;;;;;;;4176847;34;20371;-95
2021/06/01 02:08:52;;;;;;;27.80;24.02;;;;;;;;;;4168190;34;20121;-96
2021/06/01 02:11:21;;;;;;;22.73;20.52;;;;;;;;;;4185942;34;20091;-95
2021/06/01 02:14:03;;;;;;;27.15;21.75;;;;;;;;;;4161542;34;20105;-96
2021/06/01 02:16:45;;;;;;;;;;;;;;;;;;4178292;34;20078;-96
2021/06/01 02:19:20;;;;;;;17.08;16.08;;;;;;;;;;4161355;34;19939;-95
2021/06/01 02:24:45;;;;;;;21.25;19.73;;;;;;;;;;4175943;34;20125;-96
2021/06/01 02:27:25;;;;;;;22.27;20.40;;;;;;;;;;4160622;34;20076;-94
2021/06/01 02:30:03;;;;;;;21.10;19.35;;;;;;;;;;4158968;34;20094;-95
2021/06/01 02:32:50;;;;;;;20.77;19.05;;;;;;;;;;4169732;34;20114;-96
2021/06/01 02:35:27;;;;;;;19.23;17.70;;;;;;;;;;4176114;34;20087;-96
2021/06/01 02:38:03;;;;;;;18.10;16.80;;;;;;;;;;4163296;34;20086;-95
2021/06/01 02:40:36;;;;;;;18.67;17.15;;;;;;;;;;4174451;34;20072;-96
2021/06/01 02:43:08;;;;;;;18.25;16.90;;;;;;;;;;4160872;34;20110;-96
2021/06/01 02:45:39;;;;;;;19.35;17.80;;;;;;;;;;4172593;34;20071;-94
2021/06/01 02:48:22;;;;;;;19.37;17.70;;;;;;;;;;4172337;34;20151;-94
2021/06/01 02:50:57;;;;;;;18.95;17.55;;;;;;;;;;4168880;34;20063;-96
2021/06/01 02:53:28;;;;;;;18.10;16.70;;;;;;;;;;4167109;34;20072;-96
2021/06/01 02:55:57;;;;;;;17.60;16.20;;;;;;;;;;4162098;34;20079;-96
2021/06/01 02:58:37;;;;;;;17.95;16.67;;;;;;;;;;4172126;34;20443;-95
2021/06/01 03:01:19;;;;;;;17.92;16.25;;;;;;;;;;4174389;34;20067;-95
2021/06/01 03:03:54;;;;;;;17.52;16.37;;;;;;;;;;4163382;34;20406;-96
2021/06/01 03:06:25;;;;;;;17.50;16.30;;;;;;;;;;4163028;34;20069;-95
2021/06/01 03:08:59;;;;;;;17.75;16.65;;;;;;;;;;4159131;34;20091;-96
2021/06/01 03:11:36;;;;;;;18.45;17.17;;;;;;;;;;4162000;34;20080;-96
2021/06/01 03:14:08;;;;;;;17.50;16.40;;;;;;;;;;4173558;34;20067;-95
2021/06/01 03:16:43;;;;;;;18.62;17.15;;;;;;;;;;4173635;34;20125;-95
2021/06/01 03:19:24;;;;;;;19.55;17.77;;;;;;;;;;4158042;34;20076;-95
2021/06/01 03:21:52;;;;;;;18.62;17.33;;;;;;;;;;4169801;34;20072;-94
2021/06/01 03:24:33;;;;;;;18.42;16.87;;;;;;;;;;4153108;34;20082;-94
2021/06/01 03:27:19;;;;;;;17.70;16.35;;;;;;;;;;4167017;34;20513;-94
2021/06/01 03:30:05;;;;;;;17.60;16.15;;;;;;;;;;4156585;34;20780;-93
2021/06/01 03:32:44;;;;;;;17.75;16.42;;;;;;;;;;4166712;34;20390;-95
2021/06/01 03:35:16;;;;;;;17.75;16.60;;;;;;;;;;4157741;34;20052;-96
2021/06/01 03:37:48;;;;;;;18.02;16.37;;;;;;;;;;4169220;34;20079;-95
2021/06/01 03:40:23;;;;;;;17.55;16.25;;;;;;;;;;4146231;34;20196;-96
2021/06/01 03:42:55;;;;;;;17.23;15.93;;;;;;;;;;4167410;34;20087;-94
2021/06/01 03:45:36;;;;;;;17.12;15.70;;;;;;;;;;4161190;34;20069;-95
2021/06/01 03:48:08;;;;;;;16.92;15.65;;;;;;;;;;4160399;34;20140;-95
2021/06/01 03:51:06;;;;;;;16.73;15.27;;;;;;;;;;4157890;34;20087;-95
2021/06/01 03:53:41;;;;;;;16.87;15.40;;;;;;;;;;4161066;34;20141;-94
2021/06/01 03:56:16;;;;;;;15.77;14.68;;;;;;;;;;4168780;34;20064;-95
2021/06/01 03:58:49;;;;;;;15.68;14.73;;;;;;;;;;4166124;34;20110;-95
2021/06/01 04:01:22;;;;;;;15.93;14.90;;;;;;;;;;4159503;34;20681;-95
2021/06/01 04:03:58;;;;;;;25.52;17.50;;;;;;;;;;4166936;34;20068;-96
2021/06/01 04:06:30;;;;;;;26.15;18.02;;;;;;;;;;4167627;34;20056;-95
2021/06/01 04:09:02;;;;;;;26.77;17.75;;;;;;;;;;4165379;34;20074;-95
2021/06/01 04:11:44;;;;;;;26.70;18.23;;;;;;;;;;4168478;34;20088;-95
2021/06/01 04:14:18;;;;;;;27.92;18.02;;;;;;;;;;4161892;34;20082;-95
2021/06/01 04:16:50;;;;;;;26.00;17.50;;;;;;;;;;4155122;34;20175;-96
2021/06/01 04:19:21;;;;;;;29.73;18.33;;;;;;;;;;4172121;34;20103;-96
2021/06/01 04:22:07;;;;;;;29.75;17.50;;;;;;;;;;4160881;34;20082;-95
2021/06/01 04:24:40;;;;;;;26.65;18.02;;;;;;;;;;4157946;34;20092;-96
2021/06/01 04:27:20;;;;;;;26.67;18.58;;;;;;;;;;4157465;34;20394;-95
2021/06/01 04:30:14;;;;;;;24.40;17.83;;;;;;;;;;4163823;34;20083;-93
2021/06/01 04:32:45;;;;;;;30.60;18.08;;;;;;;;;;4150763;34;20439;-96
2021/06/01 04:35:28;;;;;;;24.75;17.83;;;;;;;;;;4158518;34;20110;-95
2021/06/01 04:38:01;;;;;;;25.75;17.40;;;;;;;;;;4174914;34;20083;-96
2021/06/01 04:40:44;;;;;;;27.60;17.08;;;;;;;;;;4155835;34;20099;-96
2021/06/01 04:43:33;;;;;;;23.73;17.27;;;;;;;;;;4171805;34;20070;-96
2021/06/01 04:46:27;;;;;;;25.23;17.37;;;;;;;;;;4160610;34;20130;-96
2021/06/01 04:48:59;;;;;;;25.02;17.40;;;;;;;;;;4162146;34;20569;-96
2021/06/01 04:51:35;;;;;;;28.27;18.10;;;;;;;;;;4149421;34;20065;-95
2021/06/01 04:54:17;;;;;;;25.77;18.12;;;;;;;;;;4170094;34;20720;-94
2021/06/01 04:57:09;;;;;;;26.67;18.67;;;;;;;;;;4159096;34;20088;-95
2021/06/01 04:59:45;;;;;;;27.90;17.92;;;;;;;;;;4144116;34;20083;-94
2021/06/01 05:02:33;;;;;;;26.27;17.42;;;;;;;;;;4166950;34;20113;-95
2021/06/01 05:05:03;;;;;;;26.12;18.05;;;;;;;;;;4162024;34;20466;-96
2021/06/01 05:08:01;;;;;;;22.92;16.83;;;;;;;;;;4155586;34;20070;-95
2021/06/01 05:10:36;;;;;;;20.40;16.87;;;;;;;;;;4165315;34;20075;-95
2021/06/01 05:13:09;;;;;;;21.77;16.50;;;;;;;;;;4172546;34;20126;-95
2021/06/01 05:15:38;;;;;;;20.58;16.65;;;;;;;;;;4186291;34;20056;-94
2021/06/01 05:18:13;;;;;;;24.50;17.30;;;;;;;;;;4176607;34;20425;-95
2021/06/01 05:21:12;;;;;;;25.70;17.52;;;;;;;;;;4168986;34;20083;-94
2021/06/01 05:24:03;;;;;;;21.95;16.45;;;;;;;;;;4174193;34;20055;-95
2021/06/01 05:26:44;;;;;;;20.75;16.42;;;;;;;;;;4176603;34;20052;-94
2021/06/01 05:29:20;;;;;;;21.67;16.60;;;;;;;;;;4170881;34;20108;-96
2021/06/01 05:32:05;;;;;;;21.95;16.40;;;;;;;;;;4175842;34;20059;-95
2021/06/01 05:35:02;;;;;;;16.73;13.40;;;;;;;;;;4161602;34;20418;-95
2021/06/01 05:37:44;;;;;;;12.75;11.63;;;;;;;;;;4156262;34;20075;-96
2021/06/01 05:40:21;;;;;;;12.52;11.40;;;;;;;;;;4185298;34;20093;-96
2021/06/01 05:43:22;;;;;;;9.18;8.35;;;;;;;;;;4163851;34;20829;-95
2021/06/01 05:46:06;;;;;;;9.88;8.35;;;;;;;;;;4175041;34;20095;-95
2021/06/01 05:48:41;;;;;;;9.20;8.50;;;;;;;;;;4186526;34;20086;-96
2021/06/01 05:51:30;;;;;;;8.90;8.18;;;;;;;;;;4176569;34;20087;-96
2021/06/01 05:54:22;;;;;;;9.40;8.68;;;;;;;;;;4164191;34;20643;-96
2021/06/01 05:57:28;;;;;;;9.07;8.18;;;;;;;;;;4184077;34;20059;-96
2021/06/01 06:00:18;;;;;;;7.97;7.37;;;;;;;;;;4167937;34;20113;-96
2021/06/01 06:02:53;;;;;;;8.00;7.40;;;;;;;;;;4164108;34;20363;-96
2021/06/01 06:05:30;;;;;;;8.75;6.80;;;;;;;;;;4177974;34;20051;-95
2021/06/01 06:08:10;;;;;;;7.97;6.07;;;;;;;;;;4166423;34;20122;-95
2021/06/01 06:10:50;;;;;;;6.70;6.15;;;;;;;;;;4171343;34;20111;-96
2021/06/01 06:13:29;;;;;;;8.45;6.00;;;;;;;;;;4175559;34;20146;-96
2021/06/01 06:16:07;;;;;;;6.43;5.87;;;;;;;;;;4179677;34;20051;-95
2021/06/01 06:18:48;;;;;;;23.08;9.43;;;;;;;;;;4187954;34;20064;-96
2021/06/01 06:21:25;;;;;;;19.45;17.40;;;;;;;;;;4169295;34;20044;-96
2021/06/01 06:24:20;;;;;;;14.90;7.07;;;;;;;;;;4165977;34;20060;-96
2021/06/01 06:26:59;;;;;;;17.87;16.10;;;;;;;;;;4169296;34;20099;-95
2021/06/01 06:29:52;;;;;;;17.62;15.77;;;;;;;;;;4168856;34;20033;-96
2021/06/01 06:32:47;;;;;;;17.33;13.55;;;;;;;;;;4170253;34;20060;-96
2021/06/01 06:35:25;;;;;;;9.07;2.20;;;;;;;;;;4168686;34;20092;-94
2021/06/01 06:38:00;;;;;;;17.45;14.45;;;;;;;;;;4189853;34;20073;-95
2021/06/01 06:41:06;;;;;;;5.05;2.35;;;;;;;;;;4167786;34;20155;-95
2021/06/01 06:43:52;;;;;;;18.55;4.18;;;;;;;;;;4178907;34;20110;-95
2021/06/01 06:50:29;;;;;;;7.53;5.95;;;;;;;;;;4186800;34;20087;-96
2021/06/01 06:53:17;;;;;;;6.72;1.30;;;;;;;;;;4183487;34;20091;-96
2021/06/01 06:56:53;;;;;;;2.47;0.80;;;;;;;;;;4146334;34;20053;-94
2021/06/01 07:04:19;;;;;;;3.45;0.90;;;;;;;;;;4148854;34;20644;-94
2021/06/01 07:07:36;;;;;;;3.05;0.88;;;;;;;;;;4138834;34;20654;-95
2021/06/01 07:10:51;;;;;;;4.20;0.90;;;;;;;;;;4144075;34;20076;-95
2021/06/01 07:13:51;;;;;;;4.68;1.00;;;;;;;;;;4140466;34;20056;-95
2021/06/01 07:16:32;;;;;;;3.47;0.98;;;;;;;;;;4140719;34;20068;-94
2021/06/01 07:19:34;;;;;;;2.92;0.75;;;;;;;;;;4131621;34;20069;-94
2021/06/01 07:22:33;;;;;;;7.22;1.00;;;;;;;;;;4152535;34;20068;-96
2021/06/01 07:28:01;;;;;;;1.75;0.70;;;;;;;;;;4179703;34;20115;-95
2021/06/01 07:30:35;;;;;;;5.18;1.10;;;;;;;;;;4158946;34;20102;-96
2021/06/01 07:33:42;;;;;;;3.15;0.93;;;;;;;;;;4160706;34;20121;-95
2021/06/01 07:36:56;;;;;;;2.85;0.80;;;;;;;;;;4165917;34;20048;-96
2021/06/01 07:39:33;;;;;;;2.30;0.98;;;;;;;;;;4183859;34;20101;-93
2021/06/01 07:42:13;;;;;;;2.65;0.80;;;;;;;;;;4162608;34;20125;-95
2021/06/01 07:44:55;;;;;;;4.37;1.17;;;;;;;;;;4182792;34;20064;-94
2021/06/01 07:47:27;;;;;;;2.58;0.88;;;;;;;;;;4162046;34;20060;-94
2021/06/01 07:50:20;;;;;;;93.00;7.40;;;;;;;;;;4163708;34;20063;-96
2021/06/01 07:52:53;;;;;;;6.20;1.10;;;;;;;;;;4164849;34;20130;-96
2021/06/01 07:55:44;;;;;;;2.75;1.00;;;;;;;;;;4165462;34;20067;-94
2021/06/01 07:58:22;;;;;;;9.70;1.45;;;;;;;;;;4171480;34;20095;-95
2021/06/01 08:00:55;;;;;;;2.92;0.98;;;;;;;;;;4167431;34;20500;-94
2021/06/01 08:03:37;;;;;;;18.55;1.40;;;;;;;;;;4184045;34;20101;-95
2021/06/01 08:06:12;;;;;;;4.15;1.15;;;;;;;;;;4175729;34;20060;-96
2021/06/01 08:08:47;;;;;;;3.87;0.93;;;;;;;;;;4173306;34;20103;-95
2021/06/01 08:11:31;;;;;;;5.93;0.93;;;;;;;;;;4185795;34;20121;-96
2021/06/01 08:14:14;;;;;;;26.02;2.50;;;;;;;;;;4177082;34;20059;-96
2021/06/01 08:17:06;;;;;;;4.25;1.00;;;;;;;;;;4192532;34;20120;-95
2021/06/01 08:19:48;;;;;;;3.97;1.10;;;;;;;;;;4175401;34;20381;-96
2021/06/01 08:22:40;;;;;;;6.28;1.15;;;;;;;;;;4171979;34;20078;-94
2021/06/01 08:25:37;;;;;;;7.32;1.02;;;;;;;;;;4179094;34;20051;-96
2021/06/01 08:28:14;;;;;;;15.25;1.55;;;;;;;;;;4172521;34;20950;-96
2021/06/01 08:30:56;;;;;;;4.78;1.00;;;;;;;;;;4171393;34;20130;-96
2021/06/01 08:33:30;;;;;;;5.65;1.10;;;;;;;;;;4171138;34;20152;-96
2021/06/01 08:36:05;;;;;;;4.05;1.00;;;;;;;;;;4177221;34;20634;-96
2021/06/01 08:38:40;;;;;;;24.52;2.72;;;;;;;;;;4165232;34;20118;-96
2021/06/01 08:41:42;;;;;;;5.55;1.23;;;;;;;;;;4160506;34;20108;-96
2021/06/01 08:44:32;;;;;;;32.17;3.78;;;;;;;;;;4165185;34;20052;-96
2021/06/01 08:47:31;;;;;;;3.15;1.20;;;;;;;;;;4169367;34;20113;-96
2021/06/01 08:50:13;;;;;;;3.70;1.00;;;;;;;;;;4179199;34;20040;-96
2021/06/01 10:55:57;;;;;;;1.17;1.02;;;;;;;;;;4309928;28;20090;-88
2021/06/01 11:35:10;;;;;;;;;;;;;;;;;;;;;
2021/06/01 11:38:20;;;;;;;3.67;1.27;;;;;;;;;;4100523;34;20421;-91
2021/06/01 11:46:36;;;;;;;2.67;0.90;;;;;;;;;;4094218;34;20053;-88
2021/06/01 11:54:56;;;;;;;2.05;0.82;;;;;;;;;;4135919;34;20378;-87
2021/06/01 12:11:59;;;;;;;2.45;0.90;;;;;;;;;;4179399;34;20056;-90
2021/06/01 12:21:39;;;;;;;4.93;1.12;;;;;;;;;;4159494;34;20158;-86
2021/06/01 12:24:40;;;;;;;3.03;1.00;;;;;;;;;;4095641;35;20065;-86
2021/06/01 12:27:51;;;;;;;2.47;1.00;;;;;;;;;;4086763;34;20220;-85
2021/06/01 12:33:31;;;;;;;1.35;0.60;;;;;;;;;;4098877;34;20252;-86
2021/06/01 13:06:12;;;;;;;1.45;0.55;;;;;;;;;;4180177;34;20129;-87
2021/06/01 13:46:24;;;;;;;2.12;0.55;;;;;;;;;;4145288;34;20130;-84
2021/06/01 13:53:05;;;;;;;3.92;0.60;;;;;;;;;;4127350;34;20064;-88
2021/06/01 13:56:04;;;;;;;2.58;0.85;;;;;;;;;;4100922;34;20517;-82
2021/06/01 13:59:06;;;;;;;4.03;0.90;;;;;;;;;;4149116;34;20575;-86
2021/06/01 14:15:24;;;;;;;3.40;0.60;;;;;;;;;;4157563;34;20388;-87
2021/06/01 14:56:43;;;;;;;5.53;0.85;;;;;;;;;;4119476;34;20160;-87
2021/06/01 15:30:45;;;;;;;1.62;0.70;;;;;;;;;;4116960;34;20570;-90
2021/06/01 15:47:53;;;;;;;2.85;0.75;;;;;;;;;;4161165;34;20052;-87
2021/06/01 16:14:46;;;;;;;4.32;1.00;;;;;;;;;;4165446;34;20113;-89
2021/06/01 16:23:11;;;;;;;3.15;0.85;;;;;;;;;;4168234;34;20091;-89
2021/06/01 17:05:03;;;;;;;4.85;1.00;;;;;;;;;;4171841;34;20102;-88
2021/06/01 17:13:17;;;;;;;6.32;1.02;;;;;;;;;;4153381;34;20113;-89
2021/06/01 17:15:54;;;;;;;2.95;0.73;;;;;;;;;;4162173;34;20083;-90
2021/06/01 17:35:56;;;;;;;4.62;0.73;;;;;;;;;;4167365;34;20415;-89
2021/06/01 17:38:49;;;;;;;3.08;0.75;;;;;;;;;;4159608;34;20121;-87
2021/06/01 17:41:36;;;;;;;8.02;0.95;;;;;;;;;;4160499;34;20068;-89
2021/06/01 17:44:09;;;;;;;3.10;0.60;;;;;;;;;;4168840;34;20075;-89
2021/06/01 17:47:13;;;;;;;3.70;0.75;;;;;;;;;;4160980;34;20124;-92
2021/06/01 17:50:08;;;;;;;1.67;0.75;;;;;;;;;;4161586;34;20500;-88
2021/06/01 17:53:21;;;;;;;26.92;1.80;;;;;;;;;;4144792;34;20157;-87
2021/06/01 17:56:21;;;;;;;2.28;0.60;;;;;;;;;;4147053;34;20098;-89
2021/06/01 18:02:24;;;;;;;2.37;0.65;;;;;;;;;;4166772;34;20146;-88
2021/06/01 18:08:41;;;;;;;3.37;0.70;;;;;;;;;;4151298;34;20581;-88
2021/06/01 19:26:51;;;;;;;4.53;0.80;;;;;;;;;;4127039;34;20464;-87
2021/06/01 19:52:07;;;;;;;16.70;15.68;;;;;;;;;;4162553;34;20055;-88
2021/06/01 19:54:49;;;;;;;18.60;17.48;;;;;;;;;;4182552;34;20056;-89
2021/06/01 19:57:22;;;;;;;15.30;14.15;;;;;;;;;;4169270;34;20072;-88
2021/06/01 19:59:52;;;;;;;22.73;21.15;;;;;;;;;;4169906;34;20121;-88
2021/06/01 20:02:31;;;;;;;24.65;22.95;;;;;;;;;;4152127;34;20492;-87
2021/06/01 20:05:11;;;;;;;22.52;20.58;;;;;;;;;;4186712;34;20064;-88
2021/06/01 20:07:49;;;;;;;26.05;24.35;;;;;;;;;;4176850;34;20055;-87
2021/06/01 20:10:23;;;;;;;23.98;22.10;;;;;;;;;;4169295;34;20063;-88
2021/06/01 20:12:52;;;;;;;24.42;21.98;;;;;;;;;;4166712;34;20153;-88
2021/06/01 20:15:35;;;;;;;27.77;25.67;;;;;;;;;;4175230;34;20588;-88
2021/06/01 20:18:07;;;;;;;25.35;23.38;;;;;;;;;;4165912;34;20076;-87
2021/06/01 20:20:41;;;;;;;27.92;25.50;;;;;;;;;;4185518;34;20414;-90
2021/06/01 20:23:13;;;;;;;27.62;25.12;;;;;;;;;;4166487;34;20103;-89
2021/06/01 20:25:50;;;;;;;27.98;25.30;;;;;;;;;;4178172;34;20067;-89
2021/06/01 20:28:25;;;;;;;27.75;25.27;;;;;;;;;;4169755;34;20083;-88
2021/06/01 20:31:07;;;;;;;27.98;25.77;;;;;;;;;;4162881;34;20103;-88
2021/06/01 20:33:41;;;;;;;29.67;27.27;;;;;;;;;;4157650;34;20123;-87
2021/06/01 20:36:11;;;;;;;26.77;24.87;;;;;;;;;;4150132;34;20119;-88
2021/06/01 20:38:42;;;;;;;29.80;27.40;;;;;;;;;;4155542;34;21407;-89
2021/06/01 20:41:14;;;;;;;26.48;24.77;;;;;;;;;;4167586;34;20134;-87
2021/06/01 20:43:47;;;;;;;26.27;24.45;;;;;;;;;;4164798;34;20099;-88
2021/06/01 20:46:18;;;;;;;28.30;26.10;;;;;;;;;;4172422;34;20056;-86
2021/06/01 20:48:50;;;;;;;29.83;27.33;;;;;;;;;;4157874;34;20103;-89
2021/06/01 20:51:21;;;;;;;30.52;28.12;;;;;;;;;;4172119;34;20507;-90
2021/06/01 20:53:50;;;;;;;30.12;27.35;;;;;;;;;;4170921;34;20086;-89
2021/06/01 20:56:42;;;;;;;30.12;27.62;;;;;;;;;;4159575;34;20368;-88
2021/06/01 20:59:19;;;;;;;27.37;25.05;;;;;;;;;;4166702;34;20133;-90
2021/06/01 21:01:51;;;;;;;27.80;25.35;;;;;;;;;;4159520;34;20108;-91
2021/06/01 21:04:27;;;;;;;33.83;26.30;;;;;;;;;;4171508;34;20522;-88
2021/06/01 21:07:00;;;;;;;27.55;24.85;;;;;;;;;;4178783;34;20064;-87
2021/06/01 21:09:31;;;;;;;25.58;22.85;;;;;;;;;;4155413;34;20118;-89
2021/06/01 21:12:06;;;;;;;22.55;20.65;;;;;;;;;;4168433;34;20427;-87
2021/06/01 21:14:37;;;;;;;26.60;24.52;;;;;;;;;;4173057;34;20480;-88
2021/06/01 21:17:10;;;;;;;27.20;24.67;;;;;;;;;;4169790;34;21345;-89
2021/06/01 21:19:39;;;;;;;27.02;24.83;;;;;;;;;;4151154;34;20498;-89
2021/06/01 21:22:11;;;;;;;24.08;22.35;;;;;;;;;;4159093;34;20139;-89
2021/06/01 21:24:46;;;;;;;24.15;21.95;;;;;;;;;;4159516;34;20717;-89
2021/06/01 21:27:18;;;;;;;30.83;28.42;;;;;;;;;;4158274;34;20099;-89
2021/06/01 21:29:49;;;;;;;28.25;26.10;;;;;;;;;;4179940;34;20817;-88
2021/06/01 21:32:41;;;;;;;27.25;25.05;;;;;;;;;;4174223;34;20089;-89
2021/06/01 21:35:15;;;;;;;28.23;25.88;;;;;;;;;;4172171;34;20142;-90
2021/06/01 21:37:48;;;;;;;30.52;27.40;;;;;;;;;;4164041;34;20142;-89
2021/06/01 21:40:20;;;;;;;28.35;26.00;;;;;;;;;;4162173;34;20149;-89
2021/06/01 21:43:01;;;;;;;32.70;26.20;;;;;;;;;;4164627;34;20492;-88
2021/06/01 21:45:34;;;;;;;27.87;25.50;;;;;;;;;;4165887;34;20096;-88
2021/06/01 21:48:07;;;;;;;28.35;25.98;;;;;;;;;;4161665;34;20091;-89
2021/06/01 21:50:40;;;;;;;29.73;26.20;;;;;;;;;;4175606;34;20094;-87
2021/06/01 21:53:14;;;;;;;28.17;25.83;;;;;;;;;;4164472;34;20120;-88
2021/06/01 21:55:42;;;;;;;23.40;21.50;;;;;;;;;;4170034;34;20067;-88
2021/06/01 21:58:15;;;;;;;22.92;21.12;;;;;;;;;;4168004;34;20439;-88
2021/06/01 22:00:45;;;;;;;22.83;21.15;;;;;;;;;;4165901;34;21780;-88
2021/06/01 22:03:18;;;;;;;23.33;21.73;;;;;;;;;;4169976;34;20462;-88
2021/06/01 22:05:47;;;;;;;21.70;20.00;;;;;;;;;;4163443;34;20060;-88
2021/06/01 22:08:17;;;;;;;30.35;28.00;;;;;;;;;;4172380;34;20075;-88
2021/06/01 22:10:49;;;;;;;30.37;27.75;;;;;;;;;;4178899;34;20082;-88
2021/06/01 22:13:24;;;;;;;30.83;27.98;;;;;;;;;;4162917;34;20071;-88
2021/06/01 22:15:58;;;;;;;26.00;23.87;;;;;;;;;;4166357;34;20162;-87
2021/06/01 22:18:32;;;;;;;26.00;23.75;;;;;;;;;;4173960;34;20451;-89
2021/06/01 22:21:04;;;;;;;25.52;23.45;;;;;;;;;;4170852;34;20077;-88
2021/06/01 22:23:44;;;;;;;25.83;23.73;;;;;;;;;;4175722;34;20120;-88
